^^
Grace C. Lehan Memorial Weather Station Historical Data
Daily Summary for January 28, 2021 Units:  Both    English   Metric
Daily Weekly Monthly Yearly
  High: Low: Average:
Temperature: 68.4 °F /  20.2 °C 56.8 °F /  13.8 °C 63.7 °F /  17.6 °C
Dew Point: 64.7 °F /  18.2 °C 54.8 °F /  12.7 °C 60.3 °F /  15.7 °C
Humidity: 96% 79.5% 89%
Wind Speed: 2.9mph /  4.7km/h - 0.1mph /  0.2km/h
Wind Gust: 11mph /  17.7km/h - -
Wind- - West
Pressure: 29.84 in /  1010.4 hPa 29.72 in /  1006.3 hPa -
Precipitation: 0.49 in /  12.45 mm    
 
 
Tabular Data for January 28, 2021
Time Temperature Dew Point Pressure Wind Wind Speed Wind Gust Humidity Rainfall Rate (Hourly) solar
00:09 66.4 °F /  19.1 °C 60.4 °F /  15.8 °C 29.80in /  1009hPa Calm     81% 0.00in /  0mm 0 W/m2
00:14 66.3 °F /  19.1 °C 60.3 °F /  15.7 °C 29.80in /  1009hPa SSW 0.3mph /  0.5km/h 5mph /  8km/h 81% 0.00in /  0mm 0 W/m2
00:19 66.2 °F /  19 °C 60.3 °F /  15.7 °C 29.80in /  1009hPa Calm   5mph /  8km/h 81.2% 0.00in /  0mm 0 W/m2
00:24 66.1 °F /  18.9 °C 60.5 °F /  15.8 °C 29.80in /  1009hPa Calm   5mph /  8km/h 82% 0.00in /  0mm 0 W/m2
00:29 66 °F /  18.9 °C 60.4 °F /  15.8 °C 29.80in /  1009hPa Calm   5mph /  8km/h 82% 0.00in /  0mm 0 W/m2
00:34 65.9 °F /  18.8 °C 60.3 °F /  15.7 °C 29.80in /  1009hPa Calm   5mph /  8km/h 82% 0.00in /  0mm 0 W/m2
00:39 65.9 °F /  18.8 °C 60.2 °F /  15.7 °C 29.80in /  1009hPa Calm     82% 0.00in /  0mm 0 W/m2
00:44 65.8 °F /  18.8 °C 60.1 °F /  15.6 °C 29.80in /  1009hPa Calm     82% 0.00in /  0mm 0 W/m2
00:49 65.7 °F /  18.7 °C 60.1 °F /  15.6 °C 29.80in /  1009hPa Calm     82% 0.00in /  0mm 0 W/m2
00:54 65.6 °F /  18.7 °C 60 °F /  15.6 °C 29.80in /  1009hPa Calm     82% 0.00in /  0mm 0 W/m2
00:59 65.6 °F /  18.7 °C 60 °F /  15.6 °C 29.80in /  1009hPa Calm     82% 0.00in /  0mm 0 W/m2
01:04 65.5 °F /  18.6 °C 59.9 °F /  15.5 °C 29.80in /  1009hPa Calm     82% 0.00in /  0mm 0 W/m2
01:09 65.4 °F /  18.6 °C 59.8 °F /  15.4 °C 29.80in /  1009hPa Calm     82% 0.00in /  0mm 0 W/m2
01:14 65.3 °F /  18.5 °C 59.7 °F /  15.4 °C 29.80in /  1009hPa Calm     82% 0.00in /  0mm 0 W/m2
01:19 65.2 °F /  18.4 °C 59.6 °F /  15.3 °C 29.80in /  1009hPa Calm     82% 0.00in /  0mm 0 W/m2
01:24 65.2 °F /  18.4 °C 59.5 °F /  15.3 °C 29.79in /  1008.7hPa Calm     82% 0.00in /  0mm 0 W/m2
01:29 65 °F /  18.3 °C 59.7 °F /  15.4 °C 29.79in /  1008.7hPa Calm     83% 0.00in /  0mm 0 W/m2
01:34 64.9 °F /  18.3 °C 59.4 °F /  15.2 °C 29.79in /  1008.7hPa Calm     82.6% 0.00in /  0mm 0 W/m2
01:39 64.7 °F /  18.2 °C 59.1 °F /  15.1 °C 29.79in /  1008.7hPa Calm     82% 0.00in /  0mm 0 W/m2
01:44 64.6 °F /  18.1 °C 59 °F /  15 °C 29.79in /  1008.7hPa Calm     82.2% 0.00in /  0mm 0 W/m2
01:49 64.4 °F /  18 °C 58.9 °F /  14.9 °C 29.79in /  1008.7hPa Calm     82.1% 0.00in /  0mm 0 W/m2
01:54 64.3 °F /  17.9 °C 58.7 °F /  14.8 °C 29.79in /  1008.7hPa Calm     82% 0.00in /  0mm 0 W/m2
01:59 64.3 °F /  17.9 °C 58.7 °F /  14.8 °C 29.79in /  1008.7hPa Calm     82% 0.00in /  0mm 0 W/m2
02:04 64.2 °F /  17.9 °C 58.6 °F /  14.8 °C 29.79in /  1008.7hPa Calm     82% 0.00in /  0mm 0 W/m2
02:09 64.1 °F /  17.8 °C 58.5 °F /  14.7 °C 29.79in /  1008.7hPa Calm     82% 0.00in /  0mm 0 W/m2
02:14 64.1 °F /  17.8 °C 58.5 °F /  14.7 °C 29.79in /  1008.7hPa Calm     82% 0.00in /  0mm 0 W/m2
02:19 64 °F /  17.8 °C 58.4 °F /  14.7 °C 29.78in /  1008.4hPa Calm     82% 0.00in /  0mm 0 W/m2
02:24 64 °F /  17.8 °C 58.1 °F /  14.5 °C 29.78in /  1008.4hPa Calm     81.1% 0.00in /  0mm 0 W/m2
02:29 64.1 °F /  17.8 °C 58.1 °F /  14.5 °C 29.78in /  1008.4hPa Calm     81% 0.00in /  0mm 0 W/m2
02:34 64.1 °F /  17.8 °C 58.2 °F /  14.6 °C 29.78in /  1008.4hPa Calm     81% 0.00in /  0mm 0 W/m2
02:39 64.1 °F /  17.8 °C 57.9 °F /  14.4 °C 29.78in /  1008.4hPa Calm     80.2% 0.00in /  0mm 0 W/m2
02:44 64.2 °F /  17.9 °C 57.9 °F /  14.4 °C 29.78in /  1008.4hPa Calm     80% 0.00in /  0mm 0 W/m2
02:49 64.2 °F /  17.9 °C 57.9 °F /  14.4 °C 29.78in /  1008.4hPa Calm     80% 0.00in /  0mm 0 W/m2
02:54 64.2 °F /  17.9 °C 57.8 °F /  14.3 °C 29.77in /  1008hPa Calm     79.7% 0.00in /  0mm 0 W/m2
02:59 64.2 °F /  17.9 °C 57.9 °F /  14.4 °C 29.77in /  1008hPa Calm     80% 0.00in /  0mm 0 W/m2
03:04 64.1 °F /  17.8 °C 57.8 °F /  14.3 °C 29.77in /  1008hPa Calm     80% 0.00in /  0mm 0 W/m2
03:09 64 °F /  17.8 °C 57.7 °F /  14.3 °C 29.77in /  1008hPa Calm     80% 0.00in /  0mm 0 W/m2
03:14 63.8 °F /  17.7 °C 57.6 °F /  14.2 °C 29.77in /  1008hPa Calm     80% 0.00in /  0mm 0 W/m2
03:19 63.7 °F /  17.6 °C 57.4 °F /  14.1 °C 29.77in /  1008hPa Calm     80% 0.00in /  0mm 0 W/m2
03:24 63.5 °F /  17.5 °C 57.2 °F /  14 °C 29.77in /  1008hPa Calm     80% 0.00in /  0mm 0 W/m2
03:29 63.4 °F /  17.4 °C 57.3 °F /  14.1 °C 29.77in /  1008hPa Calm     80.7% 0.00in /  0mm 0 W/m2
03:34 63.2 °F /  17.3 °C 57.3 °F /  14.1 °C 29.76in /  1007.7hPa Calm     81% 0.00in /  0mm 0 W/m2
03:39 63 °F /  17.2 °C 57.1 °F /  13.9 °C 29.76in /  1007.7hPa Calm     81% 0.00in /  0mm 0 W/m2
03:44 62.9 °F /  17.2 °C 57 °F /  13.9 °C 29.77in /  1008hPa Calm     81% 0.00in /  0mm 0 W/m2
03:49 62.7 °F /  17.1 °C 56.8 °F /  13.8 °C 29.77in /  1008hPa Calm     81% 0.00in /  0mm 0 W/m2
03:54 62.6 °F /  17 °C 56.9 °F /  13.8 °C 29.76in /  1007.7hPa Calm     81.7% 0.00in /  0mm 0 W/m2
03:59 62.5 °F /  16.9 °C 56.9 °F /  13.8 °C 29.76in /  1007.7hPa Calm     82% 0.00in /  0mm 0 W/m2
04:00 62.4 °F /  16.9 °C 56.8 °F /  13.8 °C 29.76in /  1007.7hPa Calm     82% 0.00in /  0mm 0 W/m2
04:09 62.3 °F /  16.8 °C 56.7 °F /  13.7 °C 29.77in /  1008hPa Calm     82% 0.00in /  0mm 0 W/m2
04:14 62.2 °F /  16.8 °C 56.8 °F /  13.8 °C 29.77in /  1008hPa Calm     82.3% 0.00in /  0mm 0 W/m2
04:19 62.2 °F /  16.8 °C 57 °F /  13.9 °C 29.76in /  1007.7hPa Calm     83% 0.00in /  0mm 0 W/m2
04:24 62.2 °F /  16.8 °C 57 °F /  13.9 °C 29.77in /  1008hPa Calm     83% 0.00in /  0mm 0 W/m2
04:29 62.1 °F /  16.7 °C 56.9 °F /  13.8 °C 29.77in /  1008hPa Calm     83.1% 0.00in /  0mm 0 W/m2
04:34 62.1 °F /  16.7 °C 57.2 °F /  14 °C 29.76in /  1007.7hPa Calm     84% 0.00in /  0mm 0 W/m2
04:39 62.1 °F /  16.7 °C 57.2 °F /  14 °C 29.76in /  1007.7hPa Calm     84% 0.00in /  0mm 0 W/m2
04:44 62.1 °F /  16.7 °C 57.2 °F /  14 °C 29.76in /  1007.7hPa Calm     84% 0.00in /  0mm 0 W/m2
04:49 62.2 °F /  16.8 °C 57.3 °F /  14.1 °C 29.76in /  1007.7hPa Calm     84% 0.00in /  0mm 0 W/m2
04:54 62.2 °F /  16.8 °C 57.3 °F /  14.1 °C 29.76in /  1007.7hPa Calm     84% 0.00in /  0mm 0 W/m2
04:59 62.3 °F /  16.8 °C 57.4 °F /  14.1 °C 29.76in /  1007.7hPa Calm     84% 0.00in /  0mm 0 W/m2
05:04 62.3 °F /  16.8 °C 57.5 °F /  14.2 °C 29.76in /  1007.7hPa Calm     84% 0.00in /  0mm 0 W/m2
05:09 62.5 °F /  16.9 °C 57.6 °F /  14.2 °C 29.76in /  1007.7hPa Calm     84% 0.00in /  0mm 0 W/m2
05:14 62.6 °F /  17 °C 57.7 °F /  14.3 °C 29.76in /  1007.7hPa Calm     84% 0.00in /  0mm 0 W/m2
05:19 62.8 °F /  17.1 °C 57.9 °F /  14.4 °C 29.76in /  1007.7hPa Calm     84% 0.00in /  0mm 0 W/m2
05:24 62.9 °F /  17.2 °C 57.8 °F /  14.3 °C 29.76in /  1007.7hPa Calm     83.5% 0.00in /  0mm 0 W/m2
05:29 63 °F /  17.2 °C 57.8 °F /  14.3 °C 29.76in /  1007.7hPa Calm     83% 0.00in /  0mm 0 W/m2
05:34 63.1 °F /  17.3 °C 57.9 °F /  14.4 °C 29.76in /  1007.7hPa Calm     83% 0.00in /  0mm 0 W/m2
05:39 63.2 °F /  17.3 °C 57.9 °F /  14.4 °C 29.76in /  1007.7hPa Calm     83% 0.00in /  0mm 0 W/m2
05:44 63.2 °F /  17.3 °C 57.8 °F /  14.3 °C 29.76in /  1007.7hPa Calm     82.5% 0.00in /  0mm 0 W/m2
05:49 63.3 °F /  17.4 °C 57.7 °F /  14.3 °C 29.76in /  1007.7hPa Calm     82% 0.00in /  0mm 0 W/m2
05:54 63.3 °F /  17.4 °C 57.7 °F /  14.3 °C 29.76in /  1007.7hPa Calm     82% 0.00in /  0mm 0 W/m2
05:59 63.3 °F /  17.4 °C 57.8 °F /  14.3 °C 29.76in /  1007.7hPa Calm     82% 0.00in /  0mm 0 W/m2
06:04 63.4 °F /  17.4 °C 58.1 °F /  14.5 °C 29.76in /  1007.7hPa Calm     83% 0.00in /  0mm 0 W/m2
06:09 63.4 °F /  17.4 °C 58.2 °F /  14.6 °C 29.76in /  1007.7hPa Calm     83% 0.00in /  0mm 0 W/m2
06:14 63.4 °F /  17.4 °C 57.8 °F /  14.3 °C 29.76in /  1007.7hPa Calm     82.1% 0.00in /  0mm 0 W/m2
06:19 63.4 °F /  17.4 °C 57.8 °F /  14.3 °C 29.76in /  1007.7hPa Calm     82% 0.00in /  0mm 0 W/m2
06:24 63.4 °F /  17.4 °C 57.8 °F /  14.3 °C 29.76in /  1007.7hPa Calm     82% 0.00in /  0mm 0 W/m2
06:29 63.4 °F /  17.4 °C 57.8 °F /  14.3 °C 29.76in /  1007.7hPa Calm     82% 0.00in /  0mm 0 W/m2
06:34 63.3 °F /  17.4 °C 57.7 °F /  14.3 °C 29.77in /  1008hPa Calm     82% 0.00in /  0mm 0 W/m2
06:39 63.2 °F /  17.3 °C 57.8 °F /  14.3 °C 29.77in /  1008hPa Calm     82.6% 0.00in /  0mm 0 W/m2
06:44 63.1 °F /  17.3 °C 57.9 °F /  14.4 °C 29.76in /  1007.7hPa Calm     83% 0.00in /  0mm 0 W/m2
06:49 63.1 °F /  17.3 °C 58.2 °F /  14.6 °C 29.76in /  1007.7hPa Calm     83.9% 0.00in /  0mm 0 W/m2
06:54 63.1 °F /  17.3 °C 58.2 °F /  14.6 °C 29.76in /  1007.7hPa Calm     84% 0.00in /  0mm 0 W/m2
06:59 63 °F /  17.2 °C 58.1 °F /  14.5 °C 29.76in /  1007.7hPa Calm     84% 0.00in /  0mm 0 W/m2
07:04 63 °F /  17.2 °C 58.3 °F /  14.6 °C 29.76in /  1007.7hPa Calm     84.7% 0.00in /  0mm 7 W/m2
07:09 63 °F /  17.2 °C 58.4 °F /  14.7 °C 29.75in /  1007.3hPa Calm     85% 0.00in /  0mm 12 W/m2
07:14 63 °F /  17.2 °C 58.4 °F /  14.7 °C 29.75in /  1007.3hPa Calm     85% 0.00in /  0mm 25 W/m2
07:19 63 °F /  17.2 °C 58.5 °F /  14.7 °C 29.75in /  1007.3hPa Calm     85% 0.00in /  0mm 35 W/m2
07:24 63.1 °F /  17.3 °C 58.5 °F /  14.7 °C 29.75in /  1007.3hPa Calm     85% 0.00in /  0mm 54 W/m2
07:29 63.2 °F /  17.3 °C 58.7 °F /  14.8 °C 29.76in /  1007.7hPa Calm     85% 0.00in /  0mm 54 W/m2
07:34 63.5 °F /  17.5 °C 58.9 °F /  14.9 °C 29.76in /  1007.7hPa Calm     85% 0.00in /  0mm 28 W/m2
07:39 63.7 °F /  17.6 °C 59.2 °F /  15.1 °C 29.76in /  1007.7hPa Calm     85.5% 0.00in /  0mm 46 W/m2
07:44 63.8 °F /  17.7 °C 59.2 °F /  15.1 °C 29.76in /  1007.7hPa Calm     85% 0.00in /  0mm 28 W/m2
07:49 63.9 °F /  17.7 °C 59.3 °F /  15.2 °C 29.76in /  1007.7hPa Calm     85% 0.00in /  0mm 7 W/m2
07:54 64 °F /  17.8 °C 59.3 °F /  15.2 °C 29.76in /  1007.7hPa Calm     84.8% 0.00in /  0mm 5 W/m2
07:59 64.1 °F /  17.8 °C 59.2 °F /  15.1 °C 29.76in /  1007.7hPa Calm     84% 0.00in /  0mm 16 W/m2
08:00 64.1 °F /  17.8 °C 59.2 °F /  15.1 °C 29.76in /  1007.7hPa Calm     84% 0.00in /  0mm 16 W/m2
08:09 64.2 °F /  17.9 °C 59.3 °F /  15.2 °C 29.77in /  1008hPa Calm     84% 0.00in /  0mm 26 W/m2
08:14 64.3 °F /  17.9 °C 59.4 °F /  15.2 °C 29.77in /  1008hPa Calm     84% 0.00in /  0mm 60 W/m2
08:19 64.3 °F /  17.9 °C 59.6 °F /  15.3 °C 29.76in /  1007.7hPa Calm     84.5% 0.00in /  0mm 91 W/m2
08:24 64.4 °F /  18 °C 59.7 °F /  15.4 °C 29.76in /  1007.7hPa Calm     84.5% 0.00in /  0mm 91 W/m2
08:29 64.6 °F /  18.1 °C 59.6 °F /  15.3 °C 29.76in /  1007.7hPa Calm     84% 0.00in /  0mm 104 W/m2
08:34 64.8 °F /  18.2 °C 59.9 °F /  15.5 °C 29.76in /  1007.7hPa SSW 0.1mph /  0.2km/h 3mph /  4.8km/h 84% 0.00in /  0mm 81 W/m2
08:39 65.2 °F /  18.4 °C 60.3 °F /  15.7 °C 29.76in /  1007.7hPa Calm   3mph /  4.8km/h 84% 0.00in /  0mm 100 W/m2
08:44 65.6 °F /  18.7 °C 60.4 °F /  15.8 °C 29.76in /  1007.7hPa Calm   3mph /  4.8km/h 83.4% 0.00in /  0mm 102 W/m2
08:49 66 °F /  18.9 °C 60.7 °F /  15.9 °C 29.77in /  1008hPa Calm   3mph /  4.8km/h 83% 0.00in /  0mm 135 W/m2
08:54 66.3 °F /  19.1 °C 60.9 °F /  16.1 °C 29.77in /  1008hPa Calm   3mph /  4.8km/h 82.7% 0.00in /  0mm 127 W/m2
08:59 66.6 °F /  19.2 °C 60.9 °F /  16.1 °C 29.76in /  1007.7hPa Calm   3mph /  4.8km/h 82% 0.00in /  0mm 116 W/m2
09:04 66.9 °F /  19.4 °C 61 °F /  16.1 °C 29.77in /  1008hPa Calm   3mph /  4.8km/h 81.3% 0.00in /  0mm 174 W/m2
09:09 67.1 °F /  19.5 °C 61.1 °F /  16.2 °C 29.77in /  1008hPa Calm     81% 0.00in /  0mm 171 W/m2
09:14 67.4 °F /  19.7 °C 60.9 °F /  16.1 °C 29.77in /  1008hPa Calm     79.6% 0.00in /  0mm 158 W/m2
09:19 67.7 °F /  19.8 °C 61.3 °F /  16.3 °C 29.78in /  1008.4hPa SSW 0.1mph /  0.2km/h 3mph /  4.8km/h 79.9% 0.00in /  0mm 128 W/m2
09:24 67.9 °F /  19.9 °C 61.8 °F /  16.6 °C 29.78in /  1008.4hPa Calm   3mph /  4.8km/h 80.7% 0.00in /  0mm 127 W/m2
09:29 68 °F /  20 °C 61.9 °F /  16.6 °C 29.78in /  1008.4hPa Calm   3mph /  4.8km/h 80.8% 0.00in /  0mm 127 W/m2
09:34 68.2 °F /  20.1 °C 62.3 °F /  16.8 °C 29.78in /  1008.4hPa Calm   3mph /  4.8km/h 81.6% 0.00in /  0mm 127 W/m2
09:39 68.3 °F /  20.2 °C 62.6 °F /  17 °C 29.78in /  1008.4hPa Calm   1mph /  1.6km/h 82% 0.00in /  0mm 93 W/m2
09:44 68.4 °F /  20.2 °C 62.2 °F /  16.8 °C 29.78in /  1008.4hPa Calm   1mph /  1.6km/h 80.5% 0.00in /  0mm 72 W/m2
09:49 68.4 °F /  20.2 °C 62 °F /  16.7 °C 29.78in /  1008.4hPa Calm   1mph /  1.6km/h 80% 0.00in /  0mm 56 W/m2
09:54 68.4 °F /  20.2 °C 61.8 °F /  16.6 °C 29.78in /  1008.4hPa Calm   1mph /  1.6km/h 79.5% 0.00in /  0mm 47 W/m2
09:59 68.3 °F /  20.2 °C 61.9 °F /  16.6 °C 29.78in /  1008.4hPa Calm   1mph /  1.6km/h 80% 0.00in /  0mm 39 W/m2
10:04 68.1 °F /  20.1 °C 62 °F /  16.7 °C 29.77in /  1008hPa Calm   1mph /  1.6km/h 81% 0.01in /  0.25mm 28 W/m2
10:09 67.7 °F /  19.8 °C 62.1 °F /  16.7 °C 29.76in /  1007.7hPa Calm     82.2% 0.01in /  0.25mm 58 W/m2
10:14 67.4 °F /  19.7 °C 62.4 °F /  16.9 °C 29.77in /  1008hPa Calm     84.1% 0.02in /  0.51mm 70 W/m2
10:19 67.2 °F /  19.6 °C 62.8 °F /  17.1 °C 29.78in /  1008.4hPa Calm     85.9% 0.02in /  0.51mm 79 W/m2
10:24 67.1 °F /  19.5 °C 63 °F /  17.2 °C 29.78in /  1008.4hPa Calm     86.9% 0.02in /  0.51mm 91 W/m2
10:29 67 °F /  19.4 °C 63.3 °F /  17.4 °C 29.78in /  1008.4hPa Calm     88% 0.02in /  0.51mm 250 W/m2
10:34 67.3 °F /  19.6 °C 64.3 °F /  17.9 °C 29.78in /  1008.4hPa Calm     89.9% 0.02in /  0.51mm 367 W/m2
10:39 67.7 °F /  19.8 °C 64.7 °F /  18.2 °C 29.78in /  1008.4hPa SSW 0.1mph /  0.2km/h 2mph /  3.2km/h 90.4% 0.02in /  0.51mm 316 W/m2
10:44 67.8 °F /  19.9 °C 64.6 °F /  18.1 °C 29.78in /  1008.4hPa Calm   2mph /  3.2km/h 89.4% 0.02in /  0.51mm 146 W/m2
10:49 68 °F /  20 °C 64.5 °F /  18.1 °C 29.78in /  1008.4hPa Calm   2mph /  3.2km/h 88.6% 0.02in /  0.51mm 72 W/m2
10:54 68.1 °F /  20.1 °C 64.4 °F /  18 °C 29.78in /  1008.4hPa Calm   2mph /  3.2km/h 88% 0.02in /  0.51mm 79 W/m2
10:59 68.1 °F /  20.1 °C 64.3 °F /  17.9 °C 29.78in /  1008.4hPa Calm   2mph /  3.2km/h 87.7% 0.02in /  0.51mm 67 W/m2
11:04 68 °F /  20 °C 64 °F /  17.8 °C 29.77in /  1008hPa Calm   2mph /  3.2km/h 87% 0.02in /  0.51mm 62 W/m2
11:09 67.9 °F /  19.9 °C 63.9 °F /  17.7 °C 29.77in /  1008hPa Calm   1mph /  1.6km/h 87% 0.02in /  0.51mm 65 W/m2
11:14 67.8 °F /  19.9 °C 64 °F /  17.8 °C 29.78in /  1008.4hPa Calm   1mph /  1.6km/h 87.6% 0.02in /  0.51mm 62 W/m2
11:19 67.7 °F /  19.8 °C 64 °F /  17.8 °C 29.77in /  1008hPa Calm   1mph /  1.6km/h 88% 0.02in /  0.51mm 47 W/m2
11:24 67.5 °F /  19.7 °C 63.8 °F /  17.7 °C 29.78in /  1008.4hPa Calm   1mph /  1.6km/h 88% 0.02in /  0.51mm 25 W/m2
11:29 67.3 °F /  19.6 °C 63.5 °F /  17.5 °C 29.80in /  1009hPa SW 1mph /  1.6km/h 11mph /  17.7km/h 87.8% 0.03in /  0.76mm 9 W/m2
11:34 67 °F /  19.4 °C 63.1 °F /  17.3 °C 29.80in /  1009hPa West 1mph /  1.6km/h 11mph /  17.7km/h 87.5% 0.03in /  0.76mm 5 W/m2
11:39 66.6 °F /  19.2 °C 62.9 °F /  17.2 °C 29.79in /  1008.7hPa WNW 2.9mph /  4.7km/h 9mph /  14.5km/h 88% 0.07in /  1.78mm 5 W/m2
11:44 66.1 °F /  18.9 °C 62.7 °F /  17.1 °C 29.78in /  1008.4hPa West 0.3mph /  0.5km/h 9mph /  14.5km/h 88.6% 0.08in /  2.03mm 11 W/m2
11:49 65.8 °F /  18.8 °C 62.4 °F /  16.9 °C 29.78in /  1008.4hPa Calm   9mph /  14.5km/h 89% 0.09in /  2.29mm 11 W/m2
11:54 65.5 °F /  18.6 °C 62.5 °F /  16.9 °C 29.79in /  1008.7hPa West 1.7mph /  2.7km/h 9mph /  14.5km/h 89.9% 0.10in /  2.54mm 11 W/m2
11:59 65.3 °F /  18.5 °C 62.3 °F /  16.8 °C 29.80in /  1009hPa West 1.6mph /  2.6km/h 11mph /  17.7km/h 90% 0.11in /  2.79mm 9 W/m2
12:00 65.1 °F /  18.4 °C 62.4 °F /  16.9 °C 29.80in /  1009hPa Calm   11mph /  17.7km/h 91% 0.11in /  2.79mm 7 W/m2
12:09 64.8 °F /  18.2 °C 62.2 °F /  16.8 °C 29.79in /  1008.7hPa West 0.4mph /  0.6km/h 5mph /  8km/h 91% 0.13in /  3.3mm 5 W/m2
12:14 64.7 °F /  18.2 °C 62.2 °F /  16.8 °C 29.79in /  1008.7hPa Calm   5mph /  8km/h 91.8% 0.14in /  3.56mm 5 W/m2
12:19 64.5 °F /  18.1 °C 62.2 °F /  16.8 °C 29.78in /  1008.4hPa Calm   5mph /  8km/h 92% 0.16in /  4.06mm 7 W/m2
12:24 64.4 °F /  18 °C 62 °F /  16.7 °C 29.79in /  1008.7hPa Calm   5mph /  8km/h 92% 0.18in /  4.57mm 7 W/m2
12:29 64.3 °F /  17.9 °C 62.1 °F /  16.7 °C 29.79in /  1008.7hPa Calm   5mph /  8km/h 92.4% 0.20in /  5.08mm 7 W/m2
12:34 64.3 °F /  17.9 °C 62.2 °F /  16.8 °C 29.79in /  1008.7hPa Calm   5mph /  8km/h 93% 0.20in /  5.08mm 7 W/m2
12:39 64.3 °F /  17.9 °C 62.2 °F /  16.8 °C 29.79in /  1008.7hPa Calm     93% 0.23in /  5.84mm 11 W/m2
12:44 64.3 °F /  17.9 °C 62.2 °F /  16.8 °C 29.77in /  1008hPa Calm     93% 0.25in /  6.35mm 12 W/m2
12:49 64.2 °F /  17.9 °C 62.2 °F /  16.8 °C 29.77in /  1008hPa Calm     93% 0.27in /  6.86mm 14 W/m2
12:54 64.2 °F /  17.9 °C 62.1 °F /  16.7 °C 29.77in /  1008hPa Calm     93% 0.29in /  7.37mm 14 W/m2
12:59 64.1 °F /  17.8 °C 62.3 °F /  16.8 °C 29.78in /  1008.4hPa Calm     93.8% 0.31in /  7.87mm 19 W/m2
13:04 64.1 °F /  17.8 °C 62.4 °F /  16.9 °C 29.78in /  1008.4hPa Calm     94% 0.31in /  7.87mm 25 W/m2
13:09 64.2 °F /  17.9 °C 62.4 °F /  16.9 °C 29.79in /  1008.7hPa Calm     94% 0.17in /  4.32mm 33 W/m2
13:14 64.2 °F /  17.9 °C 62.4 °F /  16.9 °C 29.79in /  1008.7hPa Calm     94% 0.18in /  4.57mm 51 W/m2
13:19 64.3 °F /  17.9 °C 62.5 °F /  16.9 °C 29.79in /  1008.7hPa Calm     94% 0.20in /  5.08mm 77 W/m2
13:24 64.3 °F /  17.9 °C 62.6 °F /  17 °C 29.78in /  1008.4hPa Calm     94% 0.22in /  5.59mm 132 W/m2
13:29 64.4 °F /  18 °C 62.8 °F /  17.1 °C 29.78in /  1008.4hPa Calm     94.6% 0.22in /  5.59mm 160 W/m2
13:34 64.7 °F /  18.2 °C 63.2 °F /  17.3 °C 29.78in /  1008.4hPa Calm     95% 0.22in /  5.59mm 146 W/m2
13:39 64.9 °F /  18.3 °C 63.4 °F /  17.4 °C 29.78in /  1008.4hPa Calm     95% 0.22in /  5.59mm 105 W/m2
13:44 65 °F /  18.3 °C 63.5 °F /  17.5 °C 29.78in /  1008.4hPa Calm     95% 0.22in /  5.59mm 120 W/m2
13:49 65.1 °F /  18.4 °C 63.6 °F /  17.6 °C 29.78in /  1008.4hPa Calm     95% 0.22in /  5.59mm 179 W/m2
13:54 65.2 °F /  18.4 °C 63.7 °F /  17.6 °C 29.77in /  1008hPa Calm     95% 0.23in /  5.84mm 176 W/m2
13:59 65.3 °F /  18.5 °C 63.9 °F /  17.7 °C 29.77in /  1008hPa Calm     95% 0.23in /  5.84mm 158 W/m2
14:04 65.6 °F /  18.7 °C 64.1 °F /  17.8 °C 29.77in /  1008hPa WNW 0.2mph /  0.3km/h 3mph /  4.8km/h 95% 0.23in /  5.84mm 121 W/m2
14:09 65.8 °F /  18.8 °C 64.3 °F /  17.9 °C 29.74in /  1007hPa NNE 2.3mph /  3.7km/h 6mph /  9.7km/h 95% 0.11in /  2.79mm 107 W/m2
14:14 65.7 °F /  18.7 °C 64.2 °F /  17.9 °C 29.72in /  1006.3hPa NE 0.7mph /  1.1km/h 6mph /  9.7km/h 95% 0.11in /  2.79mm 104 W/m2
14:19 65.5 °F /  18.6 °C 64 °F /  17.8 °C 29.72in /  1006.3hPa ENE 0.7mph /  1.1km/h 6mph /  9.7km/h 95% 0.11in /  2.79mm 100 W/m2
14:24 65.5 °F /  18.6 °C 64 °F /  17.8 °C 29.72in /  1006.3hPa Calm   6mph /  9.7km/h 95% 0.11in /  2.79mm 121 W/m2
14:29 65.5 °F /  18.6 °C 64 °F /  17.8 °C 29.72in /  1006.3hPa Calm   6mph /  9.7km/h 95% 0.11in /  2.79mm 113 W/m2
14:34 65.4 °F /  18.6 °C 63.9 °F /  17.7 °C 29.72in /  1006.3hPa Calm   6mph /  9.7km/h 95% 0.11in /  2.79mm 100 W/m2
14:39 65.4 °F /  18.6 °C 63.9 °F /  17.7 °C 29.72in /  1006.3hPa Calm     95% 0.01in /  0.25mm 72 W/m2
14:44 65.4 °F /  18.6 °C 63.9 °F /  17.7 °C 29.72in /  1006.3hPa Calm     95% 0.01in /  0.25mm 51 W/m2
14:49 65.4 °F /  18.6 °C 64 °F /  17.8 °C 29.72in /  1006.3hPa Calm     95% 0.01in /  0.25mm 37 W/m2
14:54 65.5 °F /  18.6 °C 64 °F /  17.8 °C 29.72in /  1006.3hPa Calm     95% 0.01in /  0.25mm 28 W/m2
14:59 65.5 °F /  18.6 °C 64 °F /  17.8 °C 29.74in /  1007hPa Calm     95% 0.01in /  0.25mm 18 W/m2
15:04 65.5 °F /  18.6 °C 64 °F /  17.8 °C 29.74in /  1007hPa Calm     95% 0.01in /  0.25mm 28 W/m2
15:09 65.5 °F /  18.6 °C 64 °F /  17.8 °C 29.75in /  1007.3hPa Calm     95% 0.00in /  0mm 30 W/m2
15:14 65.4 °F /  18.6 °C 63.9 °F /  17.7 °C 29.75in /  1007.3hPa Calm     95% 0.00in /  0mm 32 W/m2
15:19 65.4 °F /  18.6 °C 64 °F /  17.8 °C 29.75in /  1007.3hPa Calm     95% 0.01in /  0.25mm 33 W/m2
15:24 65.5 °F /  18.6 °C 64 °F /  17.8 °C 29.75in /  1007.3hPa Calm     95% 0.01in /  0.25mm 40 W/m2
15:29 65.5 °F /  18.6 °C 64.1 °F /  17.8 °C 29.75in /  1007.3hPa Calm     95% 0.01in /  0.25mm 39 W/m2
15:34 65.6 °F /  18.7 °C 64.1 °F /  17.8 °C 29.75in /  1007.3hPa Calm     95% 0.01in /  0.25mm 26 W/m2
15:39 65.6 °F /  18.7 °C 64.1 °F /  17.8 °C 29.75in /  1007.3hPa Calm     95% 0.01in /  0.25mm 25 W/m2
15:44 65.5 °F /  18.6 °C 64 °F /  17.8 °C 29.75in /  1007.3hPa Calm     95% 0.01in /  0.25mm 16 W/m2
15:49 65.4 °F /  18.6 °C 63.9 °F /  17.7 °C 29.76in /  1007.7hPa Calm     95% 0.01in /  0.25mm 14 W/m2
15:54 65.4 °F /  18.6 °C 63.9 °F /  17.7 °C 29.76in /  1007.7hPa Calm     95% 0.02in /  0.51mm 16 W/m2
15:59 65.3 °F /  18.5 °C 63.8 °F /  17.7 °C 29.76in /  1007.7hPa Calm     95% 0.02in /  0.51mm 16 W/m2
16:00 65.3 °F /  18.5 °C 63.8 °F /  17.7 °C 29.76in /  1007.7hPa Calm     95% 0.02in /  0.51mm 11 W/m2
16:09 65.2 °F /  18.4 °C 63.8 °F /  17.7 °C 29.76in /  1007.7hPa Calm     95% 0.02in /  0.51mm 9 W/m2
16:14 65.2 °F /  18.4 °C 63.7 °F /  17.6 °C 29.76in /  1007.7hPa Calm     95% 0.02in /  0.51mm 11 W/m2
16:19 65.2 °F /  18.4 °C 63.7 °F /  17.6 °C 29.76in /  1007.7hPa Calm     95% 0.03in /  0.76mm 7 W/m2
16:24 65.2 °F /  18.4 °C 63.7 °F /  17.6 °C 29.76in /  1007.7hPa Calm   1mph /  1.6km/h 95% 0.03in /  0.76mm 12 W/m2
16:29 65.2 °F /  18.4 °C 63.7 °F /  17.6 °C 29.76in /  1007.7hPa Calm   1mph /  1.6km/h 95% 0.03in /  0.76mm 12 W/m2
16:34 65.1 °F /  18.4 °C 63.6 °F /  17.6 °C 29.76in /  1007.7hPa Calm   1mph /  1.6km/h 95% 0.03in /  0.76mm 9 W/m2
16:39 65.1 °F /  18.4 °C 63.6 °F /  17.6 °C 29.76in /  1007.7hPa Calm     95% 0.02in /  0.51mm 7 W/m2
16:44 65.1 °F /  18.4 °C 63.6 °F /  17.6 °C 29.76in /  1007.7hPa Calm     95% 0.02in /  0.51mm 5 W/m2
16:49 65 °F /  18.3 °C 63.6 °F /  17.6 °C 29.76in /  1007.7hPa Calm     95% 0.03in /  0.76mm 12 W/m2
16:54 65 °F /  18.3 °C 63.5 °F /  17.5 °C 29.76in /  1007.7hPa Calm     95% 0.03in /  0.76mm 14 W/m2
16:59 64.9 °F /  18.3 °C 63.5 °F /  17.5 °C 29.76in /  1007.7hPa Calm     95% 0.03in /  0.76mm 16 W/m2
17:04 64.9 °F /  18.3 °C 63.4 °F /  17.4 °C 29.76in /  1007.7hPa Calm     95% 0.03in /  0.76mm 14 W/m2
17:09 64.9 °F /  18.3 °C 63.4 °F /  17.4 °C 29.75in /  1007.3hPa Calm     95% 0.02in /  0.51mm 19 W/m2
17:14 64.9 °F /  18.3 °C 63.4 °F /  17.4 °C 29.75in /  1007.3hPa Calm     95% 0.02in /  0.51mm 25 W/m2
17:19 64.9 °F /  18.3 °C 63.5 °F /  17.5 °C 29.76in /  1007.7hPa Calm     95% 0.02in /  0.51mm 32 W/m2
17:24 65 °F /  18.3 °C 63.6 °F /  17.6 °C 29.76in /  1007.7hPa Calm     95.3% 0.02in /  0.51mm 30 W/m2
17:29 65.1 °F /  18.4 °C 63.9 °F /  17.7 °C 29.76in /  1007.7hPa Calm     96% 0.02in /  0.51mm 26 W/m2
17:34 65.1 °F /  18.4 °C 63.9 °F /  17.7 °C 29.76in /  1007.7hPa Calm     96% 0.02in /  0.51mm 21 W/m2
17:39 65.2 °F /  18.4 °C 64 °F /  17.8 °C 29.76in /  1007.7hPa Calm     96% 0.01in /  0.25mm 14 W/m2
17:44 65.2 °F /  18.4 °C 64 °F /  17.8 °C 29.75in /  1007.3hPa Calm     96% 0.01in /  0.25mm 12 W/m2
17:49 65.1 °F /  18.4 °C 63.7 °F /  17.6 °C 29.76in /  1007.7hPa Calm   1mph /  1.6km/h 95.1% 0.01in /  0.25mm 18 W/m2
17:54 65.1 °F /  18.4 °C 63.6 °F /  17.6 °C 29.76in /  1007.7hPa Calm   1mph /  1.6km/h 95% 0.01in /  0.25mm 18 W/m2
17:59 65 °F /  18.3 °C 63.6 °F /  17.6 °C 29.76in /  1007.7hPa Calm   1mph /  1.6km/h 95% 0.01in /  0.25mm 11 W/m2
18:04 65 °F /  18.3 °C 63.5 °F /  17.5 °C 29.77in /  1008hPa Calm   1mph /  1.6km/h 95% 0.01in /  0.25mm 0 W/m2
18:09 65 °F /  18.3 °C 63.5 °F /  17.5 °C 29.77in /  1008hPa Calm     95% 0.00in /  0mm 0 W/m2
18:14 65 °F /  18.3 °C 63.6 °F /  17.6 °C 29.77in /  1008hPa Calm     95.4% 0.00in /  0mm 0 W/m2
18:19 64.9 °F /  18.3 °C 63.4 °F /  17.4 °C 29.77in /  1008hPa Calm     95% 0.00in /  0mm 0 W/m2
18:24 64.8 °F /  18.2 °C 63.4 °F /  17.4 °C 29.77in /  1008hPa Calm     95% 0.00in /  0mm 0 W/m2
18:29 64.8 °F /  18.2 °C 63.3 °F /  17.4 °C 29.78in /  1008.4hPa Calm     95% 0.00in /  0mm 0 W/m2
18:34 64.7 °F /  18.2 °C 63.3 °F /  17.4 °C 29.78in /  1008.4hPa Calm     95% 0.00in /  0mm 0 W/m2
18:39 64.7 °F /  18.2 °C 63.2 °F /  17.3 °C 29.78in /  1008.4hPa Calm     95% 0.00in /  0mm 0 W/m2
18:44 64.6 °F /  18.1 °C 63.2 °F /  17.3 °C 29.78in /  1008.4hPa Calm     95% 0.00in /  0mm 0 W/m2
18:49 64.6 °F /  18.1 °C 63.1 °F /  17.3 °C 29.78in /  1008.4hPa Calm     95% 0.00in /  0mm 0 W/m2
18:54 64.5 °F /  18.1 °C 63 °F /  17.2 °C 29.78in /  1008.4hPa Calm     95% 0.00in /  0mm 0 W/m2
18:59 64.5 °F /  18.1 °C 63 °F /  17.2 °C 29.78in /  1008.4hPa Calm     95% 0.00in /  0mm 0 W/m2
19:04 64.4 °F /  18 °C 63.1 °F /  17.3 °C 29.78in /  1008.4hPa Calm     95.5% 0.00in /  0mm 0 W/m2
19:09 64.4 °F /  18 °C 63.2 °F /  17.3 °C 29.79in /  1008.7hPa Calm     95.8% 0.00in /  0mm 0 W/m2
19:14 64.4 °F /  18 °C 63.2 °F /  17.3 °C 29.79in /  1008.7hPa ENE 0.1mph /  0.2km/h 2mph /  3.2km/h 96% 0.00in /  0mm 0 W/m2
19:19 64.2 °F /  17.9 °C 62.9 °F /  17.2 °C 29.79in /  1008.7hPa NE 0.8mph /  1.3km/h 5mph /  8km/h 95.2% 0.00in /  0mm 0 W/m2
19:24 64 °F /  17.8 °C 62.5 °F /  16.9 °C 29.79in /  1008.7hPa WNW 1.4mph /  2.3km/h 5mph /  8km/h 95% 0.00in /  0mm 0 W/m2
19:29 63.7 °F /  17.6 °C 62.2 °F /  16.8 °C 29.80in /  1009hPa WNW 2.3mph /  3.7km/h 10mph /  16.1km/h 95% 0.00in /  0mm 0 W/m2
19:34 63.2 °F /  17.3 °C 61.8 °F /  16.6 °C 29.80in /  1009hPa West 0.9mph /  1.4km/h 10mph /  16.1km/h 95% 0.00in /  0mm 0 W/m2
19:39 63 °F /  17.2 °C 61.5 °F /  16.4 °C 29.80in /  1009hPa WNW 0.7mph /  1.1km/h 5mph /  8km/h 95% 0.00in /  0mm 0 W/m2
19:44 62.7 °F /  17.1 °C 61.1 °F /  16.2 °C 29.80in /  1009hPa WNW 0.1mph /  0.2km/h 5mph /  8km/h 94.5% 0.00in /  0mm 0 W/m2
19:49 62.5 °F /  16.9 °C 60.7 °F /  15.9 °C 29.80in /  1009hPa WNW 0.1mph /  0.2km/h 5mph /  8km/h 94% 0.00in /  0mm 0 W/m2
19:54 62.3 °F /  16.8 °C 60.7 °F /  15.9 °C 29.80in /  1009hPa Calm   5mph /  8km/h 94.4% 0.00in /  0mm 0 W/m2
19:59 62.1 °F /  16.7 °C 60.4 °F /  15.8 °C 29.81in /  1009.4hPa Calm   5mph /  8km/h 94% 0.00in /  0mm 0 W/m2
20:00 62 °F /  16.7 °C 60.3 °F /  15.7 °C 29.80in /  1009hPa Calm   5mph /  8km/h 94% 0.00in /  0mm 0 W/m2
20:09 61.7 °F /  16.5 °C 60 °F /  15.6 °C 29.81in /  1009.4hPa WNW 0.2mph /  0.3km/h 3mph /  4.8km/h 94% 0.00in /  0mm 0 W/m2
20:14 61.5 °F /  16.4 °C 59.8 °F /  15.4 °C 29.81in /  1009.4hPa WNW 0.8mph /  1.3km/h 4mph /  6.4km/h 94% 0.00in /  0mm 0 W/m2
20:19 61.3 °F /  16.3 °C 59.5 °F /  15.3 °C 29.81in /  1009.4hPa WNW 0.1mph /  0.2km/h 4mph /  6.4km/h 94% 0.00in /  0mm 0 W/m2
20:24 61 °F /  16.1 °C 59.3 °F /  15.2 °C 29.81in /  1009.4hPa WNW 1.1mph /  1.8km/h 4mph /  6.4km/h 94% 0.00in /  0mm 0 W/m2
20:29 60.7 °F /  15.9 °C 59 °F /  15 °C 29.81in /  1009.4hPa WNW 0.6mph /  1km/h 4mph /  6.4km/h 94% 0.00in /  0mm 0 W/m2
20:34 60.5 °F /  15.8 °C 58.6 °F /  14.8 °C 29.81in /  1009.4hPa WNW 0.6mph /  1km/h 5mph /  8km/h 93.5% 0.00in /  0mm 0 W/m2
20:39 60.3 °F /  15.7 °C 58.3 °F /  14.6 °C 29.81in /  1009.4hPa NW 0.3mph /  0.5km/h 5mph /  8km/h 93% 0.00in /  0mm 0 W/m2
20:44 60.2 °F /  15.7 °C 58.1 °F /  14.5 °C 29.81in /  1009.4hPa NW 0.4mph /  0.6km/h 5mph /  8km/h 93% 0.00in /  0mm 0 W/m2
20:49 60 °F /  15.6 °C 58 °F /  14.4 °C 29.81in /  1009.4hPa NW 0.2mph /  0.3km/h 5mph /  8km/h 93% 0.00in /  0mm 0 W/m2
20:54 59.8 °F /  15.4 °C 57.8 °F /  14.3 °C 29.81in /  1009.4hPa NW 0.2mph /  0.3km/h 5mph /  8km/h 93% 0.00in /  0mm 0 W/m2
20:59 59.6 °F /  15.3 °C 57.6 °F /  14.2 °C 29.81in /  1009.4hPa Calm   5mph /  8km/h 93% 0.00in /  0mm 0 W/m2
21:04 59.5 °F /  15.3 °C 57.5 °F /  14.2 °C 29.82in /  1009.7hPa Calm   5mph /  8km/h 93% 0.00in /  0mm 0 W/m2
21:09 59.4 °F /  15.2 °C 57.4 °F /  14.1 °C 29.82in /  1009.7hPa Calm     93% 0.00in /  0mm 0 W/m2
21:14 59.3 °F /  15.2 °C 57.3 °F /  14.1 °C 29.81in /  1009.4hPa Calm     93% 0.00in /  0mm 0 W/m2
21:19 59.2 °F /  15.1 °C 57.2 °F /  14 °C 29.81in /  1009.4hPa Calm     93% 0.00in /  0mm 0 W/m2
21:24 59 °F /  15 °C 57 °F /  13.9 °C 29.82in /  1009.7hPa Calm     93% 0.00in /  0mm 0 W/m2
21:29 58.8 °F /  14.9 °C 56.8 °F /  13.8 °C 29.82in /  1009.7hPa Calm     93% 0.00in /  0mm 0 W/m2
21:34 58.7 °F /  14.8 °C 56.7 °F /  13.7 °C 29.82in /  1009.7hPa Calm     93% 0.00in /  0mm 0 W/m2
21:39 58.5 °F /  14.7 °C 56.5 °F /  13.6 °C 29.82in /  1009.7hPa Calm     93% 0.00in /  0mm 0 W/m2
21:44 58.4 °F /  14.7 °C 56.4 °F /  13.6 °C 29.82in /  1009.7hPa NW 0.2mph /  0.3km/h 4mph /  6.4km/h 93% 0.00in /  0mm 0 W/m2
21:49 58.3 °F /  14.6 °C 56.3 °F /  13.5 °C 29.82in /  1009.7hPa NW 1.9mph /  3.1km/h 6mph /  9.7km/h 93% 0.00in /  0mm 0 W/m2
21:54 58.3 °F /  14.6 °C 56.3 °F /  13.5 °C 29.82in /  1009.7hPa WNW 1.3mph /  2.1km/h 6mph /  9.7km/h 93% 0.00in /  0mm 0 W/m2
21:59 58.2 °F /  14.6 °C 56.2 °F /  13.4 °C 29.82in /  1009.7hPa WNW 0.3mph /  0.5km/h 6mph /  9.7km/h 93% 0.00in /  0mm 0 W/m2
22:04 58.1 °F /  14.5 °C 56.1 °F /  13.4 °C 29.82in /  1009.7hPa Calm   6mph /  9.7km/h 93% 0.00in /  0mm 0 W/m2
22:09 58 °F /  14.4 °C 56 °F /  13.3 °C 29.83in /  1010hPa Calm   1mph /  1.6km/h 93% 0.00in /  0mm 0 W/m2
22:14 57.9 °F /  14.4 °C 55.9 °F /  13.3 °C 29.83in /  1010hPa Calm   1mph /  1.6km/h 93.1% 0.00in /  0mm 0 W/m2
22:19 57.8 °F /  14.3 °C 55.8 °F /  13.2 °C 29.83in /  1010hPa WNW 0.1mph /  0.2km/h 2mph /  3.2km/h 93% 0.00in /  0mm 0 W/m2
22:24 57.8 °F /  14.3 °C 55.8 °F /  13.2 °C 29.83in /  1010hPa WNW 0.1mph /  0.2km/h 3mph /  4.8km/h 93.2% 0.00in /  0mm 0 W/m2
22:29 57.7 °F /  14.3 °C 56 °F /  13.3 °C 29.83in /  1010hPa WNW 0.5mph /  0.8km/h 4mph /  6.4km/h 94% 0.00in /  0mm 0 W/m2
22:34 57.6 °F /  14.2 °C 55.9 °F /  13.3 °C 29.83in /  1010hPa Calm   4mph /  6.4km/h 94% 0.00in /  0mm 0 W/m2
22:39 57.5 °F /  14.2 °C 55.8 °F /  13.2 °C 29.83in /  1010hPa Calm     94% 0.00in /  0mm 0 W/m2
22:44 57.4 °F /  14.1 °C 55.7 °F /  13.2 °C 29.83in /  1010hPa Calm     94% 0.00in /  0mm 0 W/m2
22:49 57.3 °F /  14.1 °C 55.6 °F /  13.1 °C 29.83in /  1010hPa Calm   1mph /  1.6km/h 94% 0.00in /  0mm 0 W/m2
22:54 57.3 °F /  14.1 °C 55.6 °F /  13.1 °C 29.83in /  1010hPa WNW 0.3mph /  0.5km/h 2mph /  3.2km/h 94% 0.00in /  0mm 0 W/m2
22:59 57.2 °F /  14 °C 55.5 °F /  13.1 °C 29.83in /  1010hPa WNW 0.3mph /  0.5km/h 3mph /  4.8km/h 94% 0.00in /  0mm 0 W/m2
23:04 57.2 °F /  14 °C 55.5 °F /  13.1 °C 29.84in /  1010.4hPa WNW 0.3mph /  0.5km/h 5mph /  8km/h 94% 0.00in /  0mm 0 W/m2
23:09 57.1 °F /  13.9 °C 55.4 °F /  13 °C 29.84in /  1010.4hPa Calm   5mph /  8km/h 94% 0.00in /  0mm 0 W/m2
23:14 57.1 °F /  13.9 °C 55.2 °F /  12.9 °C 29.84in /  1010.4hPa Calm   5mph /  8km/h 93.5% 0.00in /  0mm 0 W/m2
23:19 57.1 °F /  13.9 °C 55.2 °F /  12.9 °C 29.84in /  1010.4hPa WNW 0.1mph /  0.2km/h 5mph /  8km/h 93.4% 0.00in /  0mm 0 W/m2
23:24 57 °F /  13.9 °C 55.3 °F /  12.9 °C 29.84in /  1010.4hPa WNW 0.7mph /  1.1km/h 5mph /  8km/h 94% 0.00in /  0mm 0 W/m2
23:29 57.1 °F /  13.9 °C 55.4 °F /  13 °C 29.84in /  1010.4hPa WNW 1.9mph /  3.1km/h 6mph /  9.7km/h 94% 0.00in /  0mm 0 W/m2
23:34 57.1 °F /  13.9 °C 55.1 °F /  12.8 °C 29.84in /  1010.4hPa NW 0.9mph /  1.4km/h 6mph /  9.7km/h 93.1% 0.00in /  0mm 0 W/m2
23:39 57.1 °F /  13.9 °C 55.1 °F /  12.8 °C 29.84in /  1010.4hPa NW 2.2mph /  3.5km/h 6mph /  9.7km/h 93% 0.00in /  0mm 0 W/m2
23:44 57 °F /  13.9 °C 55 °F /  12.8 °C 29.84in /  1010.4hPa WNW 1.3mph /  2.1km/h 6mph /  9.7km/h 93% 0.00in /  0mm 0 W/m2
23:49 57 °F /  13.9 °C 55 °F /  12.8 °C 29.84in /  1010.4hPa WNW 1.7mph /  2.7km/h 6mph /  9.7km/h 93% 0.00in /  0mm 0 W/m2
23:54 56.9 °F /  13.8 °C 54.9 °F /  12.7 °C 29.84in /  1010.4hPa WNW 0.8mph /  1.3km/h 6mph /  9.7km/h 93% 0.00in /  0mm 0 W/m2
23:59 56.8 °F /  13.8 °C 54.8 °F /  12.7 °C 29.84in /  1010.4hPa WNW 0.2mph /  0.3km/h 6mph /  9.7km/h 93% 0.00in /  0mm 0 W/m2
Hartford County Weather
Compliments of Weather Underground - 4 mb